sensor_id;sensor_type;location;lat;lon;timestamp;P1;durP1;ratioP1;P2;durP2;ratioP2
46719;SDS011;32452;51.382;-0.002;2024-03-22T00:01:21;25.10;;;14.30;;
46719;SDS011;32452;51.382;-0.002;2024-03-22T00:04:06;32.13;;;16.00;;
46719;SDS011;32452;51.382;-0.002;2024-03-22T00:06:50;26.58;;;15.80;;
46719;SDS011;32452;51.382;-0.002;2024-03-22T00:09:35;27.67;;;16.02;;
46719;SDS011;32452;51.382;-0.002;2024-03-22T00:12:19;28.48;;;14.93;;
46719;SDS011;32452;51.382;-0.002;2024-03-22T00:15:04;23.88;;;14.73;;
46719;SDS011;32452;51.382;-0.002;2024-03-22T00:17:49;26.27;;;15.48;;
46719;SDS011;32452;51.382;-0.002;2024-03-22T00:20:34;25.15;;;15.57;;
46719;SDS011;32452;51.382;-0.002;2024-03-22T00:23:18;25.50;;;14.15;;
46719;SDS011;32452;51.382;-0.002;2024-03-22T00:26:03;28.02;;;16.08;;
46719;SDS011;32452;51.382;-0.002;2024-03-22T00:28:47;25.75;;;16.48;;
46719;SDS011;32452;51.382;-0.002;2024-03-22T00:31:33;27.60;;;15.57;;
46719;SDS011;32452;51.382;-0.002;2024-03-22T00:34:17;29.05;;;16.42;;
46719;SDS011;32452;51.382;-0.002;2024-03-22T00:37:03;26.77;;;16.05;;
46719;SDS011;32452;51.382;-0.002;2024-03-22T00:39:48;28.92;;;16.17;;
46719;SDS011;32452;51.382;-0.002;2024-03-22T00:42:32;27.65;;;15.27;;
46719;SDS011;32452;51.382;-0.002;2024-03-22T00:45:17;32.13;;;15.90;;
46719;SDS011;32452;51.382;-0.002;2024-03-22T00:48:01;26.35;;;14.55;;
46719;SDS011;32452;51.382;-0.002;2024-03-22T00:50:46;32.22;;;17.23;;
46719;SDS011;32452;51.382;-0.002;2024-03-22T00:53:30;31.27;;;16.02;;
46719;SDS011;32452;51.382;-0.002;2024-03-22T00:56:15;26.35;;;14.48;;
46719;SDS011;32452;51.382;-0.002;2024-03-22T00:59:00;23.20;;;13.45;;
46719;SDS011;32452;51.382;-0.002;2024-03-22T01:01:44;30.13;;;16.33;;
46719;SDS011;32452;51.382;-0.002;2024-03-22T01:04:29;28.83;;;15.55;;
46719;SDS011;32452;51.382;-0.002;2024-03-22T01:07:13;30.00;;;15.50;;
46719;SDS011;32452;51.382;-0.002;2024-03-22T01:09:58;22.20;;;14.35;;
46719;SDS011;32452;51.382;-0.002;2024-03-22T01:12:42;24.48;;;13.77;;
46719;SDS011;32452;51.382;-0.002;2024-03-22T01:15:27;21.98;;;13.18;;
46719;SDS011;32452;51.382;-0.002;2024-03-22T01:18:12;22.25;;;11.80;;
46719;SDS011;32452;51.382;-0.002;2024-03-22T01:20:56;19.02;;;11.45;;
46719;SDS011;32452;51.382;-0.002;2024-03-22T01:23:41;24.58;;;12.35;;
46719;SDS011;32452;51.382;-0.002;2024-03-22T01:26:25;18.85;;;11.52;;
46719;SDS011;32452;51.382;-0.002;2024-03-22T01:29:10;22.98;;;11.75;;
46719;SDS011;32452;51.382;-0.002;2024-03-22T01:31:54;20.80;;;11.50;;
46719;SDS011;32452;51.382;-0.002;2024-03-22T01:34:39;20.13;;;10.68;;
46719;SDS011;32452;51.382;-0.002;2024-03-22T01:37:24;20.60;;;9.57;;
46719;SDS011;32452;51.382;-0.002;2024-03-22T01:40:08;17.20;;;9.55;;
46719;SDS011;32452;51.382;-0.002;2024-03-22T01:42:56;18.25;;;9.82;;
46719;SDS011;32452;51.382;-0.002;2024-03-22T01:45:41;16.02;;;8.95;;
46719;SDS011;32452;51.382;-0.002;2024-03-22T01:48:26;17.15;;;10.35;;
46719;SDS011;32452;51.382;-0.002;2024-03-22T01:51:10;18.58;;;9.75;;
46719;SDS011;32452;51.382;-0.002;2024-03-22T01:53:55;18.88;;;9.85;;
46719;SDS011;32452;51.382;-0.002;2024-03-22T01:56:41;17.75;;;9.48;;
46719;SDS011;32452;51.382;-0.002;2024-03-22T01:59:26;19.35;;;9.32;;
46719;SDS011;32452;51.382;-0.002;2024-03-22T02:02:12;18.88;;;10.30;;
46719;SDS011;32452;51.382;-0.002;2024-03-22T02:04:57;19.73;;;10.45;;
46719;SDS011;32452;51.382;-0.002;2024-03-22T02:07:42;17.92;;;10.15;;
46719;SDS011;32452;51.382;-0.002;2024-03-22T02:10:27;20.95;;;11.18;;
46719;SDS011;32452;51.382;-0.002;2024-03-22T02:13:11;20.77;;;10.30;;
46719;SDS011;32452;51.382;-0.002;2024-03-22T02:15:56;20.55;;;9.43;;
46719;SDS011;32452;51.382;-0.002;2024-03-22T02:18:41;22.17;;;11.13;;
46719;SDS011;32452;51.382;-0.002;2024-03-22T02:21:26;19.58;;;9.88;;
46719;SDS011;32452;51.382;-0.002;2024-03-22T02:24:10;23.10;;;10.77;;
46719;SDS011;32452;51.382;-0.002;2024-03-22T02:26:55;19.13;;;10.65;;
46719;SDS011;32452;51.382;-0.002;2024-03-22T02:29:40;19.25;;;11.20;;
46719;SDS011;32452;51.382;-0.002;2024-03-22T02:32:24;18.35;;;11.07;;
46719;SDS011;32452;51.382;-0.002;2024-03-22T02:35:09;23.20;;;10.05;;
46719;SDS011;32452;51.382;-0.002;2024-03-22T02:37:54;20.98;;;10.18;;
46719;SDS011;32452;51.382;-0.002;2024-03-22T02:40:38;22.42;;;10.73;;
46719;SDS011;32452;51.382;-0.002;2024-03-22T02:43:23;21.70;;;10.48;;
46719;SDS011;32452;51.382;-0.002;2024-03-22T02:46:07;18.02;;;10.65;;
46719;SDS011;32452;51.382;-0.002;2024-03-22T02:48:52;20.48;;;10.88;;
46719;SDS011;32452;51.382;-0.002;2024-03-22T02:51:36;22.13;;;11.75;;
46719;SDS011;32452;51.382;-0.002;2024-03-22T02:54:21;18.90;;;10.38;;
46719;SDS011;32452;51.382;-0.002;2024-03-22T02:57:06;17.42;;;9.48;;
46719;SDS011;32452;51.382;-0.002;2024-03-22T02:59:50;15.40;;;8.70;;
46719;SDS011;32452;51.382;-0.002;2024-03-22T03:02:35;17.27;;;9.38;;
46719;SDS011;32452;51.382;-0.002;2024-03-22T03:05:19;21.65;;;9.55;;
46719;SDS011;32452;51.382;-0.002;2024-03-22T03:08:04;17.92;;;9.35;;
46719;SDS011;32452;51.382;-0.002;2024-03-22T03:10:48;14.07;;;8.38;;
46719;SDS011;32452;51.382;-0.002;2024-03-22T03:13:33;16.20;;;9.32;;
46719;SDS011;32452;51.382;-0.002;2024-03-22T03:16:18;17.27;;;8.63;;
46719;SDS011;32452;51.382;-0.002;2024-03-22T03:19:02;16.98;;;9.32;;
46719;SDS011;32452;51.382;-0.002;2024-03-22T03:21:47;18.08;;;8.80;;
46719;SDS011;32452;51.382;-0.002;2024-03-22T03:24:31;19.27;;;9.35;;
46719;SDS011;32452;51.382;-0.002;2024-03-22T03:27:16;17.17;;;8.32;;
46719;SDS011;32452;51.382;-0.002;2024-03-22T03:30:01;13.93;;;7.43;;
46719;SDS011;32452;51.382;-0.002;2024-03-22T03:32:45;14.07;;;8.18;;
46719;SDS011;32452;51.382;-0.002;2024-03-22T03:35:30;15.60;;;7.72;;
46719;SDS011;32452;51.382;-0.002;2024-03-22T03:38:14;12.60;;;7.35;;
46719;SDS011;32452;51.382;-0.002;2024-03-22T03:40:59;12.13;;;7.13;;
46719;SDS011;32452;51.382;-0.002;2024-03-22T03:43:44;13.27;;;7.03;;
46719;SDS011;32452;51.382;-0.002;2024-03-22T03:46:28;16.30;;;7.50;;
46719;SDS011;32452;51.382;-0.002;2024-03-22T03:49:13;15.63;;;7.60;;
46719;SDS011;32452;51.382;-0.002;2024-03-22T03:51:58;16.05;;;7.45;;
46719;SDS011;32452;51.382;-0.002;2024-03-22T03:54:42;13.18;;;7.00;;
46719;SDS011;32452;51.382;-0.002;2024-03-22T03:57:27;17.48;;;8.25;;
46719;SDS011;32452;51.382;-0.002;2024-03-22T04:00:12;18.38;;;7.85;;
46719;SDS011;32452;51.382;-0.002;2024-03-22T04:02:56;14.52;;;7.30;;
46719;SDS011;32452;51.382;-0.002;2024-03-22T04:05:41;12.52;;;6.60;;
46719;SDS011;32452;51.382;-0.002;2024-03-22T04:08:25;14.57;;;7.07;;
46719;SDS011;32452;51.382;-0.002;2024-03-22T04:11:10;15.85;;;7.22;;
46719;SDS011;32452;51.382;-0.002;2024-03-22T04:13:55;15.02;;;7.05;;
46719;SDS011;32452;51.382;-0.002;2024-03-22T04:16:40;14.27;;;6.97;;
46719;SDS011;32452;51.382;-0.002;2024-03-22T04:19:24;17.10;;;8.95;;
46719;SDS011;32452;51.382;-0.002;2024-03-22T04:22:09;17.75;;;8.32;;
46719;SDS011;32452;51.382;-0.002;2024-03-22T04:24:54;14.65;;;7.18;;
46719;SDS011;32452;51.382;-0.002;2024-03-22T04:27:38;13.40;;;7.30;;
46719;SDS011;32452;51.382;-0.002;2024-03-22T04:30:23;15.30;;;7.40;;
46719;SDS011;32452;51.382;-0.002;2024-03-22T04:33:08;13.60;;;7.82;;
46719;SDS011;32452;51.382;-0.002;2024-03-22T04:35:53;15.05;;;8.23;;
46719;SDS011;32452;51.382;-0.002;2024-03-22T04:38:38;14.57;;;7.55;;
46719;SDS011;32452;51.382;-0.002;2024-03-22T04:41:23;16.02;;;6.80;;
46719;SDS011;32452;51.382;-0.002;2024-03-22T04:44:07;16.20;;;6.93;;
46719;SDS011;32452;51.382;-0.002;2024-03-22T04:46:52;14.57;;;7.18;;
46719;SDS011;32452;51.382;-0.002;2024-03-22T04:49:37;12.88;;;7.95;;
46719;SDS011;32452;51.382;-0.002;2024-03-22T04:52:21;14.82;;;7.25;;
46719;SDS011;32452;51.382;-0.002;2024-03-22T04:55:06;14.73;;;7.43;;
46719;SDS011;32452;51.382;-0.002;2024-03-22T04:57:51;15.00;;;7.97;;
46719;SDS011;32452;51.382;-0.002;2024-03-22T05:00:36;15.88;;;7.13;;
46719;SDS011;32452;51.382;-0.002;2024-03-22T05:03:21;14.98;;;8.05;;
46719;SDS011;32452;51.382;-0.002;2024-03-22T05:06:05;19.08;;;8.20;;
46719;SDS011;32452;51.382;-0.002;2024-03-22T05:08:50;16.85;;;8.88;;
46719;SDS011;32452;51.382;-0.002;2024-03-22T05:11:35;18.17;;;8.75;;
46719;SDS011;32452;51.382;-0.002;2024-03-22T05:14:20;21.52;;;9.60;;
46719;SDS011;32452;51.382;-0.002;2024-03-22T05:17:05;17.50;;;8.57;;
46719;SDS011;32452;51.382;-0.002;2024-03-22T05:19:50;17.02;;;9.63;;
46719;SDS011;32452;51.382;-0.002;2024-03-22T05:22:34;18.20;;;9.55;;
46719;SDS011;32452;51.382;-0.002;2024-03-22T05:25:19;19.95;;;9.38;;
46719;SDS011;32452;51.382;-0.002;2024-03-22T05:28:03;17.45;;;9.43;;
46719;SDS011;32452;51.382;-0.002;2024-03-22T05:30:48;16.35;;;8.90;;
46719;SDS011;32452;51.382;-0.002;2024-03-22T05:33:32;20.15;;;10.00;;
46719;SDS011;32452;51.382;-0.002;2024-03-22T05:36:17;16.98;;;8.32;;
46719;SDS011;32452;51.382;-0.002;2024-03-22T05:39:02;18.08;;;8.70;;
46719;SDS011;32452;51.382;-0.002;2024-03-22T05:41:46;18.23;;;8.57;;
46719;SDS011;32452;51.382;-0.002;2024-03-22T05:44:31;18.60;;;9.70;;
46719;SDS011;32452;51.382;-0.002;2024-03-22T05:47:15;15.68;;;8.52;;
46719;SDS011;32452;51.382;-0.002;2024-03-22T05:50:00;17.20;;;7.72;;
46719;SDS011;32452;51.382;-0.002;2024-03-22T05:52:45;16.63;;;8.63;;
46719;SDS011;32452;51.382;-0.002;2024-03-22T05:55:30;13.88;;;7.10;;
46719;SDS011;32452;51.382;-0.002;2024-03-22T05:58:16;13.25;;;6.80;;
46719;SDS011;32452;51.382;-0.002;2024-03-22T06:01:01;11.07;;;6.03;;
46719;SDS011;32452;51.382;-0.002;2024-03-22T06:03:45;12.27;;;7.13;;
46719;SDS011;32452;51.382;-0.002;2024-03-22T06:06:30;18.67;;;8.00;;
46719;SDS011;32452;51.382;-0.002;2024-03-22T06:09:18;13.82;;;7.13;;
46719;SDS011;32452;51.382;-0.002;2024-03-22T06:12:17;13.73;;;7.40;;
46719;SDS011;32452;51.382;-0.002;2024-03-22T06:15:03;14.25;;;8.00;;
46719;SDS011;32452;51.382;-0.002;2024-03-22T06:17:50;16.35;;;7.45;;
46719;SDS011;32452;51.382;-0.002;2024-03-22T06:20:35;13.73;;;7.25;;
46719;SDS011;32452;51.382;-0.002;2024-03-22T06:23:20;21.52;;;9.10;;
46719;SDS011;32452;51.382;-0.002;2024-03-22T06:26:06;14.65;;;7.35;;
46719;SDS011;32452;51.382;-0.002;2024-03-22T06:28:52;13.38;;;7.10;;
46719;SDS011;32452;51.382;-0.002;2024-03-22T06:31:36;14.82;;;7.22;;
46719;SDS011;32452;51.382;-0.002;2024-03-22T06:34:21;15.23;;;7.45;;
46719;SDS011;32452;51.382;-0.002;2024-03-22T06:37:05;13.32;;;6.28;;
46719;SDS011;32452;51.382;-0.002;2024-03-22T06:39:50;14.98;;;7.45;;
46719;SDS011;32452;51.382;-0.002;2024-03-22T06:42:34;14.88;;;7.05;;
46719;SDS011;32452;51.382;-0.002;2024-03-22T06:45:19;15.00;;;7.07;;
46719;SDS011;32452;51.382;-0.002;2024-03-22T06:48:04;19.67;;;8.68;;
46719;SDS011;32452;51.382;-0.002;2024-03-22T06:50:49;14.48;;;7.50;;
46719;SDS011;32452;51.382;-0.002;2024-03-22T06:53:33;13.90;;;7.95;;
46719;SDS011;32452;51.382;-0.002;2024-03-22T06:56:18;17.48;;;8.07;;
46719;SDS011;32452;51.382;-0.002;2024-03-22T06:59:03;12.45;;;6.35;;
46719;SDS011;32452;51.382;-0.002;2024-03-22T07:01:47;14.10;;;7.20;;
46719;SDS011;32452;51.382;-0.002;2024-03-22T07:04:33;16.58;;;7.03;;
46719;SDS011;32452;51.382;-0.002;2024-03-22T07:07:17;18.38;;;6.97;;
46719;SDS011;32452;51.382;-0.002;2024-03-22T07:10:03;18.23;;;7.30;;
46719;SDS011;32452;51.382;-0.002;2024-03-22T07:12:49;15.35;;;6.97;;
46719;SDS011;32452;51.382;-0.002;2024-03-22T07:15:33;12.88;;;6.00;;
46719;SDS011;32452;51.382;-0.002;2024-03-22T07:18:18;13.50;;;5.95;;
46719;SDS011;32452;51.382;-0.002;2024-03-22T07:21:03;16.80;;;6.30;;
46719;SDS011;32452;51.382;-0.002;2024-03-22T07:23:48;17.15;;;6.70;;
46719;SDS011;32452;51.382;-0.002;2024-03-22T07:26:32;12.32;;;5.65;;
46719;SDS011;32452;51.382;-0.002;2024-03-22T07:29:17;13.85;;;5.63;;
46719;SDS011;32452;51.382;-0.002;2024-03-22T07:32:01;14.32;;;6.10;;
46719;SDS011;32452;51.382;-0.002;2024-03-22T07:34:47;13.50;;;5.25;;
46719;SDS011;32452;51.382;-0.002;2024-03-22T07:37:32;12.45;;;5.35;;
46719;SDS011;32452;51.382;-0.002;2024-03-22T07:40:18;13.55;;;4.63;;
46719;SDS011;32452;51.382;-0.002;2024-03-22T07:43:03;12.45;;;5.00;;
46719;SDS011;32452;51.382;-0.002;2024-03-22T07:45:50;10.93;;;5.00;;
46719;SDS011;32452;51.382;-0.002;2024-03-22T07:48:35;16.42;;;5.43;;
46719;SDS011;32452;51.382;-0.002;2024-03-22T07:51:20;15.02;;;5.93;;
46719;SDS011;32452;51.382;-0.002;2024-03-22T07:54:04;15.63;;;5.25;;
46719;SDS011;32452;51.382;-0.002;2024-03-22T07:56:50;14.23;;;5.35;;
46719;SDS011;32452;51.382;-0.002;2024-03-22T07:59:34;15.48;;;5.35;;
46719;SDS011;32452;51.382;-0.002;2024-03-22T08:02:19;11.98;;;5.45;;
46719;SDS011;32452;51.382;-0.002;2024-03-22T08:05:03;14.80;;;5.78;;
46719;SDS011;32452;51.382;-0.002;2024-03-22T08:07:49;12.07;;;4.72;;
46719;SDS011;32452;51.382;-0.002;2024-03-22T08:10:33;15.90;;;5.43;;
46719;SDS011;32452;51.382;-0.002;2024-03-22T08:13:18;10.73;;;5.13;;
46719;SDS011;32452;51.382;-0.002;2024-03-22T08:16:02;13.15;;;4.80;;
46719;SDS011;32452;51.382;-0.002;2024-03-22T08:18:47;10.60;;;5.25;;
46719;SDS011;32452;51.382;-0.002;2024-03-22T08:21:32;11.45;;;4.95;;
46719;SDS011;32452;51.382;-0.002;2024-03-22T08:24:18;11.77;;;5.00;;
46719;SDS011;32452;51.382;-0.002;2024-03-22T08:27:03;12.00;;;4.88;;
46719;SDS011;32452;51.382;-0.002;2024-03-22T08:29:48;13.35;;;4.63;;
46719;SDS011;32452;51.382;-0.002;2024-03-22T08:32:32;14.65;;;4.85;;
46719;SDS011;32452;51.382;-0.002;2024-03-22T08:35:17;12.05;;;4.55;;
46719;SDS011;32452;51.382;-0.002;2024-03-22T08:38:01;9.00;;;4.22;;
46719;SDS011;32452;51.382;-0.002;2024-03-22T08:40:46;8.55;;;4.03;;
46719;SDS011;32452;51.382;-0.002;2024-03-22T08:43:31;6.32;;;3.60;;
46719;SDS011;32452;51.382;-0.002;2024-03-22T08:46:15;11.80;;;4.15;;
46719;SDS011;32452;51.382;-0.002;2024-03-22T08:49:00;12.40;;;4.30;;
46719;SDS011;32452;51.382;-0.002;2024-03-22T08:51:45;8.57;;;4.10;;
46719;SDS011;32452;51.382;-0.002;2024-03-22T08:54:30;12.32;;;4.10;;
46719;SDS011;32452;51.382;-0.002;2024-03-22T08:57:14;8.77;;;3.60;;
46719;SDS011;32452;51.382;-0.002;2024-03-22T08:59:59;9.45;;;3.75;;
46719;SDS011;32452;51.382;-0.002;2024-03-22T09:02:44;9.45;;;3.42;;
46719;SDS011;32452;51.382;-0.002;2024-03-22T09:05:28;7.53;;;3.05;;
46719;SDS011;32452;51.382;-0.002;2024-03-22T09:08:13;9.65;;;3.80;;
46719;SDS011;32452;51.382;-0.002;2024-03-22T09:10:57;8.15;;;3.13;;
46719;SDS011;32452;51.382;-0.002;2024-03-22T09:13:42;13.60;;;4.07;;
46719;SDS011;32452;51.382;-0.002;2024-03-22T09:16:33;11.52;;;4.15;;
46719;SDS011;32452;51.382;-0.002;2024-03-22T09:19:17;12.95;;;3.60;;
46719;SDS011;32452;51.382;-0.002;2024-03-22T09:22:02;8.88;;;4.30;;
46719;SDS011;32452;51.382;-0.002;2024-03-22T09:24:46;11.00;;;4.10;;
46719;SDS011;32452;51.382;-0.002;2024-03-22T09:27:31;7.38;;;3.53;;
46719;SDS011;32452;51.382;-0.002;2024-03-22T09:30:16;9.48;;;3.63;;
46719;SDS011;32452;51.382;-0.002;2024-03-22T09:33:01;10.85;;;3.75;;
46719;SDS011;32452;51.382;-0.002;2024-03-22T09:35:47;9.07;;;4.50;;
46719;SDS011;32452;51.382;-0.002;2024-03-22T09:38:31;10.50;;;3.88;;
46719;SDS011;32452;51.382;-0.002;2024-03-22T09:41:19;9.75;;;3.58;;
46719;SDS011;32452;51.382;-0.002;2024-03-22T09:44:08;8.15;;;3.63;;
46719;SDS011;32452;51.382;-0.002;2024-03-22T09:46:58;9.35;;;3.58;;
46719;SDS011;32452;51.382;-0.002;2024-03-22T09:49:45;5.65;;;3.30;;
46719;SDS011;32452;51.382;-0.002;2024-03-22T09:52:32;9.35;;;4.13;;
46719;SDS011;32452;51.382;-0.002;2024-03-22T09:55:20;16.02;;;4.40;;
46719;SDS011;32452;51.382;-0.002;2024-03-22T09:58:07;7.15;;;3.28;;
46719;SDS011;32452;51.382;-0.002;2024-03-22T10:00:52;8.75;;;3.58;;
46719;SDS011;32452;51.382;-0.002;2024-03-22T10:03:37;7.95;;;3.03;;
46719;SDS011;32452;51.382;-0.002;2024-03-22T10:06:21;7.20;;;3.20;;
46719;SDS011;32452;51.382;-0.002;2024-03-22T10:09:07;6.10;;;3.40;;
46719;SDS011;32452;51.382;-0.002;2024-03-22T10:11:52;12.07;;;4.57;;
46719;SDS011;32452;51.382;-0.002;2024-03-22T10:14:37;10.40;;;3.45;;
46719;SDS011;32452;51.382;-0.002;2024-03-22T10:17:26;8.05;;;3.78;;
46719;SDS011;32452;51.382;-0.002;2024-03-22T10:20:14;9.60;;;3.38;;
46719;SDS011;32452;51.382;-0.002;2024-03-22T10:22:59;7.65;;;3.10;;
46719;SDS011;32452;51.382;-0.002;2024-03-22T10:25:44;8.65;;;3.38;;
46719;SDS011;32452;51.382;-0.002;2024-03-22T10:28:28;8.77;;;3.40;;
46719;SDS011;32452;51.382;-0.002;2024-03-22T10:31:13;9.57;;;4.07;;
46719;SDS011;32452;51.382;-0.002;2024-03-22T10:33:58;7.78;;;4.00;;
46719;SDS011;32452;51.382;-0.002;2024-03-22T10:36:46;7.28;;;3.20;;
46719;SDS011;32452;51.382;-0.002;2024-03-22T10:39:31;8.27;;;3.53;;
46719;SDS011;32452;51.382;-0.002;2024-03-22T10:42:17;8.55;;;3.53;;
46719;SDS011;32452;51.382;-0.002;2024-03-22T10:45:03;9.52;;;3.40;;
46719;SDS011;32452;51.382;-0.002;2024-03-22T10:47:48;8.05;;;3.63;;
46719;SDS011;32452;51.382;-0.002;2024-03-22T10:50:34;7.43;;;4.07;;
46719;SDS011;32452;51.382;-0.002;2024-03-22T10:53:23;7.57;;;3.22;;
46719;SDS011;32452;51.382;-0.002;2024-03-22T10:56:09;8.35;;;3.55;;
46719;SDS011;32452;51.382;-0.002;2024-03-22T10:58:54;10.48;;;4.32;;
46719;SDS011;32452;51.382;-0.002;2024-03-22T11:01:39;13.32;;;4.47;;
46719;SDS011;32452;51.382;-0.002;2024-03-22T11:04:29;7.15;;;3.35;;
46719;SDS011;32452;51.382;-0.002;2024-03-22T11:07:19;7.97;;;4.20;;
46719;SDS011;32452;51.382;-0.002;2024-03-22T11:10:04;8.55;;;3.78;;
46719;SDS011;32452;51.382;-0.002;2024-03-22T11:12:50;9.60;;;4.30;;
46719;SDS011;32452;51.382;-0.002;2024-03-22T11:15:35;9.68;;;4.70;;
46719;SDS011;32452;51.382;-0.002;2024-03-22T11:18:20;7.07;;;4.32;;
46719;SDS011;32452;51.382;-0.002;2024-03-22T11:21:04;7.85;;;3.88;;
46719;SDS011;32452;51.382;-0.002;2024-03-22T11:23:52;11.70;;;4.65;;
46719;SDS011;32452;51.382;-0.002;2024-03-22T11:26:36;13.82;;;3.10;;
46719;SDS011;32452;51.382;-0.002;2024-03-22T11:29:22;13.00;;;3.33;;
46719;SDS011;32452;51.382;-0.002;2024-03-22T11:32:08;17.45;;;4.32;;
46719;SDS011;32452;51.382;-0.002;2024-03-22T11:34:52;11.38;;;3.20;;
46719;SDS011;32452;51.382;-0.002;2024-03-22T11:37:40;15.57;;;3.80;;
46719;SDS011;32452;51.382;-0.002;2024-03-22T11:40:26;18.75;;;2.85;;
46719;SDS011;32452;51.382;-0.002;2024-03-22T11:43:13;14.85;;;3.13;;
46719;SDS011;32452;51.382;-0.002;2024-03-22T11:46:00;11.02;;;2.78;;
46719;SDS011;32452;51.382;-0.002;2024-03-22T11:48:45;13.60;;;3.28;;
46719;SDS011;32452;51.382;-0.002;2024-03-22T11:51:35;10.63;;;3.10;;
46719;SDS011;32452;51.382;-0.002;2024-03-22T11:54:20;9.82;;;3.40;;
46719;SDS011;32452;51.382;-0.002;2024-03-22T11:57:05;10.32;;;3.55;;
46719;SDS011;32452;51.382;-0.002;2024-03-22T11:59:50;16.58;;;3.75;;
46719;SDS011;32452;51.382;-0.002;2024-03-22T12:02:35;10.98;;;3.78;;
46719;SDS011;32452;51.382;-0.002;2024-03-22T12:05:20;11.57;;;3.55;;
46719;SDS011;32452;51.382;-0.002;2024-03-22T12:08:05;9.95;;;3.42;;
46719;SDS011;32452;51.382;-0.002;2024-03-22T12:10:50;14.95;;;3.53;;
46719;SDS011;32452;51.382;-0.002;2024-03-22T12:13:34;11.63;;;3.13;;
46719;SDS011;32452;51.382;-0.002;2024-03-22T12:16:19;12.30;;;3.35;;
46719;SDS011;32452;51.382;-0.002;2024-03-22T12:19:03;12.10;;;3.22;;
46719;SDS011;32452;51.382;-0.002;2024-03-22T12:21:48;18.17;;;3.70;;
46719;SDS011;32452;51.382;-0.002;2024-03-22T12:24:33;13.43;;;2.75;;
46719;SDS011;32452;51.382;-0.002;2024-03-22T12:27:17;15.38;;;3.67;;
46719;SDS011;32452;51.382;-0.002;2024-03-22T12:30:02;19.25;;;3.42;;
46719;SDS011;32452;51.382;-0.002;2024-03-22T12:32:46;24.25;;;3.92;;
46719;SDS011;32452;51.382;-0.002;2024-03-22T12:35:31;15.40;;;3.78;;
46719;SDS011;32452;51.382;-0.002;2024-03-22T12:38:16;13.55;;;2.90;;
46719;SDS011;32452;51.382;-0.002;2024-03-22T12:41:02;17.75;;;3.85;;
46719;SDS011;32452;51.382;-0.002;2024-03-22T12:43:46;17.92;;;3.13;;
46719;SDS011;32452;51.382;-0.002;2024-03-22T12:46:31;19.10;;;3.28;;
46719;SDS011;32452;51.382;-0.002;2024-03-22T12:49:16;16.85;;;3.72;;
46719;SDS011;32452;51.382;-0.002;2024-03-22T12:52:01;15.80;;;3.83;;
46719;SDS011;32452;51.382;-0.002;2024-03-22T12:54:45;14.93;;;3.13;;
46719;SDS011;32452;51.382;-0.002;2024-03-22T12:57:30;12.25;;;2.92;;
46719;SDS011;32452;51.382;-0.002;2024-03-22T13:00:15;14.55;;;3.15;;
46719;SDS011;32452;51.382;-0.002;2024-03-22T13:03:02;19.67;;;3.25;;
46719;SDS011;32452;51.382;-0.002;2024-03-22T13:05:47;17.02;;;3.83;;
46719;SDS011;32452;51.382;-0.002;2024-03-22T13:08:32;18.38;;;3.78;;
46719;SDS011;32452;51.382;-0.002;2024-03-22T13:11:16;17.88;;;3.97;;
46719;SDS011;32452;51.382;-0.002;2024-03-22T13:14:01;17.17;;;4.68;;
46719;SDS011;32452;51.382;-0.002;2024-03-22T13:16:46;16.35;;;3.33;;
46719;SDS011;32452;51.382;-0.002;2024-03-22T13:19:31;15.00;;;4.47;;
46719;SDS011;32452;51.382;-0.002;2024-03-22T13:22:15;17.60;;;3.70;;
46719;SDS011;32452;51.382;-0.002;2024-03-22T13:25:02;22.42;;;3.95;;
46719;SDS011;32452;51.382;-0.002;2024-03-22T13:27:50;17.13;;;3.80;;
46719;SDS011;32452;51.382;-0.002;2024-03-22T13:30:34;17.92;;;4.05;;
46719;SDS011;32452;51.382;-0.002;2024-03-22T13:33:21;14.55;;;3.38;;
46719;SDS011;32452;51.382;-0.002;2024-03-22T13:36:06;16.92;;;2.70;;
46719;SDS011;32452;51.382;-0.002;2024-03-22T13:38:51;18.73;;;3.75;;
46719;SDS011;32452;51.382;-0.002;2024-03-22T13:41:36;22.02;;;4.07;;
46719;SDS011;32452;51.382;-0.002;2024-03-22T13:44:20;15.27;;;3.95;;
46719;SDS011;32452;51.382;-0.002;2024-03-22T13:47:05;19.20;;;4.07;;
46719;SDS011;32452;51.382;-0.002;2024-03-22T13:49:49;23.30;;;3.80;;
46719;SDS011;32452;51.382;-0.002;2024-03-22T13:52:34;20.23;;;3.75;;
46719;SDS011;32452;51.382;-0.002;2024-03-22T13:55:19;18.67;;;4.78;;
46719;SDS011;32452;51.382;-0.002;2024-03-22T13:58:03;16.67;;;3.17;;
46719;SDS011;32452;51.382;-0.002;2024-03-22T14:00:48;20.83;;;4.10;;
46719;SDS011;32452;51.382;-0.002;2024-03-22T14:03:33;20.52;;;4.47;;
46719;SDS011;32452;51.382;-0.002;2024-03-22T14:06:17;16.80;;;3.15;;
46719;SDS011;32452;51.382;-0.002;2024-03-22T14:09:02;20.02;;;3.83;;
46719;SDS011;32452;51.382;-0.002;2024-03-22T14:11:48;17.73;;;3.75;;
46719;SDS011;32452;51.382;-0.002;2024-03-22T14:14:32;22.25;;;4.85;;
46719;SDS011;32452;51.382;-0.002;2024-03-22T14:17:17;22.42;;;4.15;;
46719;SDS011;32452;51.382;-0.002;2024-03-22T14:20:02;11.98;;;3.10;;
46719;SDS011;32452;51.382;-0.002;2024-03-22T14:22:52;16.70;;;3.58;;
46719;SDS011;32452;51.382;-0.002;2024-03-22T14:25:37;18.33;;;3.13;;
46719;SDS011;32452;51.382;-0.002;2024-03-22T14:28:22;13.30;;;3.40;;
46719;SDS011;32452;51.382;-0.002;2024-03-22T14:31:07;18.15;;;3.15;;
46719;SDS011;32452;51.382;-0.002;2024-03-22T14:33:52;15.40;;;3.00;;
46719;SDS011;32452;51.382;-0.002;2024-03-22T14:36:37;16.55;;;3.38;;
46719;SDS011;32452;51.382;-0.002;2024-03-22T14:39:22;18.50;;;4.20;;
46719;SDS011;32452;51.382;-0.002;2024-03-22T14:42:06;23.30;;;3.38;;
46719;SDS011;32452;51.382;-0.002;2024-03-22T14:44:51;24.75;;;3.67;;
46719;SDS011;32452;51.382;-0.002;2024-03-22T14:47:36;13.93;;;2.95;;
46719;SDS011;32452;51.382;-0.002;2024-03-22T14:50:21;21.70;;;4.03;;
46719;SDS011;32452;51.382;-0.002;2024-03-22T14:53:07;12.88;;;2.70;;
46719;SDS011;32452;51.382;-0.002;2024-03-22T14:55:56;13.82;;;2.50;;
46719;SDS011;32452;51.382;-0.002;2024-03-22T14:58:49;13.23;;;2.75;;
46719;SDS011;32452;51.382;-0.002;2024-03-22T15:01:34;18.83;;;3.42;;
46719;SDS011;32452;51.382;-0.002;2024-03-22T15:04:19;17.75;;;3.35;;
46719;SDS011;32452;51.382;-0.002;2024-03-22T15:07:03;25.83;;;3.58;;
46719;SDS011;32452;51.382;-0.002;2024-03-22T15:09:48;14.80;;;3.47;;
46719;SDS011;32452;51.382;-0.002;2024-03-22T15:12:33;20.50;;;3.17;;
46719;SDS011;32452;51.382;-0.002;2024-03-22T15:15:17;19.88;;;3.80;;
46719;SDS011;32452;51.382;-0.002;2024-03-22T15:18:02;11.38;;;3.50;;
46719;SDS011;32452;51.382;-0.002;2024-03-22T15:20:46;20.35;;;4.60;;
46719;SDS011;32452;51.382;-0.002;2024-03-22T15:23:31;18.55;;;3.63;;
46719;SDS011;32452;51.382;-0.002;2024-03-22T15:26:16;21.02;;;3.63;;
46719;SDS011;32452;51.382;-0.002;2024-03-22T15:29:01;16.63;;;3.47;;
46719;SDS011;32452;51.382;-0.002;2024-03-22T15:31:45;21.67;;;4.32;;
46719;SDS011;32452;51.382;-0.002;2024-03-22T15:34:30;16.75;;;3.45;;
46719;SDS011;32452;51.382;-0.002;2024-03-22T15:37:14;17.85;;;3.40;;
46719;SDS011;32452;51.382;-0.002;2024-03-22T15:39:59;18.83;;;2.78;;
46719;SDS011;32452;51.382;-0.002;2024-03-22T15:42:44;17.48;;;2.95;;
46719;SDS011;32452;51.382;-0.002;2024-03-22T15:45:28;22.25;;;3.53;;
46719;SDS011;32452;51.382;-0.002;2024-03-22T15:48:14;13.45;;;2.92;;
46719;SDS011;32452;51.382;-0.002;2024-03-22T15:51:04;16.63;;;2.72;;
46719;SDS011;32452;51.382;-0.002;2024-03-22T15:53:48;12.27;;;3.25;;
46719;SDS011;32452;51.382;-0.002;2024-03-22T15:56:33;18.77;;;3.88;;
46719;SDS011;32452;51.382;-0.002;2024-03-22T15:59:17;19.33;;;3.40;;
46719;SDS011;32452;51.382;-0.002;2024-03-22T16:02:03;10.88;;;2.85;;
46719;SDS011;32452;51.382;-0.002;2024-03-22T16:04:49;18.13;;;3.58;;